Time;durP1;ratioP1;P1;durP2;ratioP2;P2;SDS_P1;SDS_P2;PMS_P1;PMS_P2;Temp;Humidity;BMP_temperature;BMP_pressure;BME280_temperature;BME280_humidity;BME280_pressure;Samples;Min_cycle;Max_cycle;Signal;HPM_P1;HPM_P2
2022/11/28 00:00:56;;;;;;;10.15;7.80;;;6.70;99.90;;;;;;5057734;28;20048;-72
2022/11/28 00:03:23;;;;;;;11.50;7.40;;;6.70;99.90;;;;;;5059929;28;20794;-72
2022/11/28 00:05:49;;;;;;;12.02;8.15;;;6.80;99.90;;;;;;5061631;28;20499;-73
2022/11/28 00:08:15;;;;;;;9.07;7.72;;;6.70;99.90;;;;;;5064607;28;20048;-73
2022/11/28 00:10:40;;;;;;;10.85;8.73;;;6.80;99.90;;;;;;5058337;28;20044;-72
2022/11/28 00:13:06;;;;;;;10.52;8.55;;;6.80;99.90;;;;;;5056165;28;20052;-72
2022/11/28 00:15:32;;;;;;;9.77;7.57;;;6.80;99.90;;;;;;5057398;28;20047;-73
2022/11/28 00:17:57;;;;;;;10.40;8.70;;;6.80;99.90;;;;;;5055789;28;20040;-72
2022/11/28 00:20:23;;;;;;;11.23;7.75;;;6.80;99.90;;;;;;5060904;28;20041;-72
2022/11/28 00:22:49;;;;;;;10.70;8.43;;;6.80;99.90;;;;;;5060733;28;20114;-72
2022/11/28 00:25:15;;;;;;;11.40;8.20;;;6.80;99.90;;;;;;5055537;28;20048;-73
2022/11/28 00:27:40;;;;;;;13.23;8.75;;;6.80;99.90;;;;;;5069856;28;20039;-73
2022/11/28 00:30:07;;;;;;;10.23;8.60;;;6.80;99.90;;;;;;5062717;28;20049;-72
2022/11/28 00:32:35;;;;;;;10.05;8.55;;;6.80;99.90;;;;;;5056902;28;20036;-72
2022/11/28 00:35:01;;;;;;;11.82;7.93;;;6.80;99.90;;;;;;5054011;28;20047;-73
2022/11/28 00:37:26;;;;;;;11.50;8.10;;;6.80;99.90;;;;;;5056845;28;20041;-72
2022/11/28 00:39:52;;;;;;;12.77;8.93;;;6.80;99.90;;;;;;5055998;28;20040;-72
2022/11/28 00:42:20;;;;;;;11.10;8.15;;;6.80;99.90;;;;;;5057045;28;20037;-72
2022/11/28 00:44:47;;;;;;;11.40;7.88;;;6.80;99.90;;;;;;5086567;28;20060;-72
2022/11/28 00:47:13;;;;;;;10.07;7.45;;;6.80;99.90;;;;;;5060237;28;20060;-72
2022/11/28 00:49:38;;;;;;;10.93;7.68;;;6.80;99.90;;;;;;5059367;28;20044;-72
2022/11/28 00:52:04;;;;;;;13.00;8.55;;;6.80;99.90;;;;;;5092285;28;20058;-73
2022/11/28 00:54:30;;;;;;;10.25;8.32;;;6.80;99.90;;;;;;5078616;28;20194;-72
2022/11/28 00:56:55;;;;;;;10.73;8.43;;;6.80;99.90;;;;;;5072964;28;20077;-73
2022/11/28 00:59:21;;;;;;;10.10;8.45;;;6.80;99.90;;;;;;5065119;28;20145;-72
2022/11/28 01:01:47;;;;;;;10.25;8.20;;;6.80;99.90;;;;;;5058741;28;20131;-72
2022/11/28 01:04:14;;;;;;;10.95;8.50;;;6.80;99.90;;;;;;5059550;28;20044;-72
2022/11/28 01:06:43;;;;;;;14.50;8.65;;;6.80;99.90;;;;;;5050351;28;20212;-72
2022/11/28 01:09:12;;;;;;;11.07;9.38;;;6.80;99.90;;;;;;5050721;28;20036;-72
2022/11/28 01:11:39;;;;;;;10.43;8.05;;;6.80;99.90;;;;;;5048798;28;20075;-72
2022/11/28 01:14:05;;;;;;;11.73;9.70;;;6.80;99.90;;;;;;5053282;28;20056;-72
2022/11/28 01:16:31;;;;;;;12.93;8.95;;;6.80;99.90;;;;;;5060172;28;20037;-72
2022/11/28 01:18:57;;;;;;;10.80;8.23;;;6.80;99.90;;;;;;5062662;28;20037;-72
2022/11/28 01:21:23;;;;;;;12.52;8.38;;;6.80;99.90;;;;;;5075232;28;20515;-72
2022/11/28 01:23:49;;;;;;;10.10;8.53;;;6.80;99.90;;;;;;5070107;28;20166;-71
2022/11/28 01:26:23;;;;;;;12.40;8.10;;;6.80;99.90;;;;;;5058736;28;20397;-72
2022/11/28 01:28:49;;;;;;;11.15;8.85;;;6.80;99.90;;;;;;5087077;28;20047;-73
2022/11/28 01:31:17;;;;;;;12.43;9.50;;;6.80;99.90;;;;;;5061760;28;20145;-72
2022/11/28 01:33:43;;;;;;;10.70;8.90;;;6.80;99.90;;;;;;5061002;28;20040;-71
2022/11/28 01:36:10;;;;;;;12.10;8.45;;;6.90;99.90;;;;;;5057121;28;20049;-72
2022/11/28 01:38:36;;;;;;;11.02;9.00;;;6.90;99.90;;;;;;5061735;28;20049;-72
2022/11/28 01:41:02;;;;;;;10.93;9.18;;;6.80;99.90;;;;;;5059922;28;20499;-71
2022/11/28 01:43:28;;;;;;;12.55;9.00;;;6.80;99.90;;;;;;5052542;28;20137;-72
2022/11/28 01:45:54;;;;;;;11.85;9.02;;;6.80;99.90;;;;;;5051621;28;20198;-73
2022/11/28 01:48:27;;;;;;;11.13;8.68;;;6.90;99.90;;;;;;5059922;28;20483;-72
2022/11/28 01:50:57;;;;;;;11.43;8.93;;;6.90;99.90;;;;;;5051910;28;20132;-72
2022/11/28 01:53:25;;;;;;;12.07;9.73;;;6.90;99.90;;;;;;5057375;28;20041;-72
2022/11/28 01:56:05;;;;;;;10.68;8.43;;;6.90;99.90;;;;;;5059539;28;20052;-73
2022/11/28 01:58:33;;;;;;;11.48;8.63;;;6.90;99.90;;;;;;5076404;28;20105;-72
2022/11/28 02:01:01;;;;;;;11.82;8.93;;;6.90;99.90;;;;;;5058170;28;20144;-72
2022/11/28 02:03:38;;;;;;;10.73;9.23;;;6.90;99.90;;;;;;5054772;28;20112;-72
2022/11/28 02:06:04;;;;;;;12.02;9.27;;;6.90;99.90;;;;;;5053687;28;20064;-72
2022/11/28 02:08:34;;;;;;;11.30;8.15;;;6.90;99.90;;;;;;5048068;28;20044;-72
2022/11/28 02:11:14;;;;;;;10.95;8.82;;;6.90;99.90;;;;;;5054187;28;20044;-72
2022/11/28 02:13:49;;;;;;;12.70;9.05;;;6.90;99.90;;;;;;5056947;28;20116;-72
2022/11/28 02:16:36;;;;;;;11.32;9.20;;;6.90;99.90;;;;;;5047436;28;20388;-72
2022/11/28 02:19:36;;;;;;;11.93;8.85;;;6.90;99.90;;;;;;5084798;28;20438;-72
2022/11/28 02:22:16;;;;;;;11.38;9.00;;;6.90;99.90;;;;;;5064234;28;20055;-72
2022/11/28 02:24:54;;;;;;;11.25;8.68;;;6.90;99.90;;;;;;5064763;28;20036;-72
2022/11/28 02:27:41;;;;;;;11.00;9.18;;;6.90;99.90;;;;;;5060571;28;20043;-72
2022/11/28 02:30:18;;;;;;;12.70;8.93;;;6.90;99.90;;;;;;5061421;28;20043;-73
2022/11/28 02:33:02;;;;;;;13.13;8.38;;;6.90;99.90;;;;;;5063512;28;20055;-72
2022/11/28 02:36:01;;;;;;;10.98;8.80;;;6.90;99.90;;;;;;5055136;28;20060;-72
2022/11/28 02:38:48;;;;;;;10.95;9.70;;;6.90;99.90;;;;;;5062047;28;20053;-73
2022/11/28 02:41:28;;;;;;;12.95;9.02;;;7.00;99.90;;;;;;5057249;28;20040;-73
2022/11/28 02:44:03;;;;;;;11.20;9.23;;;7.00;99.90;;;;;;5061937;28;20114;-73
2022/11/28 02:46:39;;;;;;;11.70;9.57;;;7.00;99.90;;;;;;5056911;28;20083;-72
2022/11/28 02:49:10;;;;;;;11.10;9.63;;;7.00;99.90;;;;;;5059536;28;20049;-72
2022/11/28 02:52:05;;;;;;;12.38;9.32;;;7.00;99.90;;;;;;5064289;28;20680;-72
2022/11/28 02:54:32;;;;;;;12.27;9.05;;;7.00;99.90;;;;;;5053072;28;20048;-71
2022/11/28 02:56:58;;;;;;;10.25;8.70;;;7.00;99.90;;;;;;5060450;28;20165;-73
2022/11/28 02:59:32;;;;;;;12.73;9.85;;;7.00;99.90;;;;;;5060877;28;20041;-72
2022/11/28 03:01:59;;;;;;;11.70;9.05;;;7.00;99.90;;;;;;5067657;28;20045;-73
2022/11/28 03:04:25;;;;;;;;;;;7.00;99.90;;;;;;5062970;28;20041;-72
2022/11/28 03:07:16;;;;;;;10.45;8.95;;;7.00;99.90;;;;;;5056942;28;19920;-73
2022/11/28 03:09:55;;;;;;;11.60;9.02;;;7.00;99.90;;;;;;5057559;28;20407;-72
2022/11/28 03:12:21;;;;;;;12.80;9.32;;;7.10;99.90;;;;;;5056736;28;20756;-73
2022/11/28 03:14:50;;;;;;;10.80;9.18;;;7.10;99.90;;;;;;5052247;28;20052;-72
2022/11/28 03:17:34;;;;;;;12.63;9.35;;;7.10;99.90;;;;;;5062510;28;20387;-72
2022/11/28 03:20:12;;;;;;;11.73;9.38;;;7.10;99.90;;;;;;5058176;28;20071;-72
2022/11/28 03:23:10;;;;;;;12.52;9.13;;;7.10;99.90;;;;;;5047757;28;20075;-72
2022/11/28 03:25:45;;;;;;;13.27;9.80;;;7.10;99.90;;;;;;5060437;28;20059;-72
2022/11/28 03:28:18;;;;;;;12.23;10.07;;;7.10;99.90;;;;;;5060171;28;20044;-72
2022/11/28 03:30:57;;;;;;;11.90;9.68;;;7.10;99.90;;;;;;5056893;28;20063;-72
2022/11/28 03:33:26;;;;;;;12.98;9.68;;;7.10;99.90;;;;;;5058945;28;20099;-72
2022/11/28 03:35:57;;;;;;;13.73;10.50;;;7.20;99.90;;;;;;5051627;28;20400;-72
2022/11/28 03:38:37;;;;;;;11.52;9.65;;;7.10;99.90;;;;;;5061239;28;20055;-72
2022/11/28 03:41:13;;;;;;;13.00;10.25;;;7.20;99.90;;;;;;5055791;28;20052;-72
2022/11/28 03:43:45;;;;;;;14.00;10.32;;;7.20;99.90;;;;;;5093450;28;20051;-72
2022/11/28 03:46:14;;;;;;;14.57;10.25;;;7.20;99.90;;;;;;5067017;28;20040;-72
2022/11/28 03:48:51;;;;;;;11.48;9.90;;;7.20;99.90;;;;;;5062862;28;20041;-72
2022/11/28 03:51:24;;;;;;;12.10;9.90;;;7.10;99.90;;;;;;5050356;28;20618;-72
2022/11/28 03:53:55;;;;;;;16.73;11.43;;;7.30;99.90;;;;;;5077808;28;20644;-72
2022/11/28 03:56:39;;;;;;;14.57;12.07;;;7.20;99.90;;;;;;5085952;28;20628;-72
2022/11/28 03:59:11;;;;;;;17.70;11.68;;;7.20;99.90;;;;;;5049840;28;20510;-72
2022/11/28 04:02:00;;;;;;;18.27;13.38;;;7.20;99.90;;;;;;5041610;28;20048;-72
2022/11/28 04:04:38;;;;;;;15.13;11.80;;;7.20;99.90;;;;;;5060731;28;20831;-72
2022/11/28 04:07:07;;;;;;;15.52;12.63;;;7.20;99.90;;;;;;5063425;28;20086;-73
2022/11/28 04:09:48;;;;;;;16.23;12.73;;;7.20;99.90;;;;;;5043643;28;20058;-73
2022/11/28 04:12:22;;;;;;;15.82;12.10;;;7.20;99.90;;;;;;5056709;28;20132;-73
2022/11/28 04:14:57;;;;;;;14.77;13.15;;;7.20;99.90;;;;;;5058384;28;20091;-73
2022/11/28 04:17:36;;;;;;;14.27;11.98;;;7.20;99.90;;;;;;5061913;28;20519;-73
2022/11/28 04:20:15;;;;;;;15.13;13.32;;;7.20;99.90;;;;;;5061847;28;20075;-73
2022/11/28 04:22:50;;;;;;;16.13;12.82;;;7.20;99.90;;;;;;5059971;28;20041;-73
2022/11/28 04:25:18;;;;;;;15.55;12.23;;;7.20;99.90;;;;;;5055023;28;20048;-74
2022/11/28 04:27:56;;;;;;;17.50;12.30;;;7.20;99.90;;;;;;5060496;28;20094;-73
2022/11/28 04:30:22;;;;;;;16.33;13.35;;;7.20;99.90;;;;;;5085572;28;20122;-73
2022/11/28 04:32:52;;;;;;;21.80;15.02;;;7.20;99.90;;;;;;5066420;28;20541;-73
2022/11/28 04:35:27;;;;;;;19.10;15.55;;;7.20;99.90;;;;;;5055347;28;20048;-72
2022/11/28 04:37:54;;;;;;;21.77;19.20;;;7.30;99.90;;;;;;5071885;28;20066;-73
2022/11/28 04:40:22;;;;;;;23.90;19.45;;;7.30;99.90;;;;;;5071790;28;20083;-73
2022/11/28 04:42:59;;;;;;;25.02;19.83;;;7.30;99.90;;;;;;5063398;28;20040;-73
2022/11/28 04:45:45;;;;;;;23.98;21.27;;;7.40;99.90;;;;;;5052996;28;20108;-73
2022/11/28 04:48:11;;;;;;;25.95;20.70;;;7.40;99.90;;;;;;5064353;28;20059;-73
2022/11/28 04:50:48;;;;;;;23.35;20.90;;;7.40;99.90;;;;;;5056601;28;20056;-73
2022/11/28 04:53:25;;;;;;;28.38;22.48;;;7.50;99.90;;;;;;5054800;28;20120;-73
2022/11/28 04:55:57;;;;;;;27.65;24.33;;;7.50;99.90;;;;;;5059119;28;20458;-73
2022/11/28 04:58:56;;;;;;;25.75;22.83;;;7.50;99.90;;;;;;5062717;28;20038;-73
2022/11/28 05:01:28;;;;;;;27.30;24.38;;;7.50;99.90;;;;;;5066436;28;20059;-72
2022/11/28 05:03:54;;;;;;;27.33;24.45;;;7.50;99.90;;;;;;5050263;28;20036;-73
2022/11/28 05:06:29;;;;;;;26.60;22.60;;;7.50;99.90;;;;;;5058589;28;20075;-73
2022/11/28 05:08:55;;;;;;;25.50;22.13;;;7.50;99.90;;;;;;5066477;28;20057;-73
2022/11/28 05:11:21;;;;;;;26.70;22.80;;;7.50;99.90;;;;;;5062579;28;20073;-72
2022/11/28 05:13:46;;;;;;;25.92;23.00;;;7.50;99.90;;;;;;5066155;28;20063;-73
2022/11/28 05:16:13;;;;;;;32.55;25.92;;;7.60;99.90;;;;;;5055982;28;20502;-73
2022/11/28 05:18:39;;;;;;;36.20;32.17;;;7.60;99.90;;;;;;5060788;28;20053;-73
2022/11/28 05:21:08;;;;;;;47.58;38.05;;;7.60;99.90;;;;;;5060299;28;20048;-73
2022/11/28 05:23:42;;;;;;;51.53;37.15;;;7.60;99.90;;;;;;5069172;28;20047;-73
2022/11/28 05:26:11;;;;;;;62.00;45.13;;;7.60;99.90;;;;;;5085946;27;20052;-73
2022/11/28 05:28:37;;;;;;;80.07;56.78;;;7.60;99.90;;;;;;5059493;28;20119;-72
2022/11/28 05:31:03;;;;;;;80.43;54.03;;;7.60;99.90;;;;;;5051592;28;20499;-70
2022/11/28 05:33:30;;;;;;;61.15;43.83;;;7.60;99.90;;;;;;5050667;28;20479;-72
2022/11/28 05:36:01;;;;;;;63.10;44.78;;;7.70;99.90;;;;;;5048557;28;20047;-73
2022/11/28 05:38:26;;;;;;;89.47;60.58;;;7.70;99.90;;;;;;5063294;28;20056;-73
2022/11/28 05:40:52;;;;;;;97.43;61.20;;;7.70;99.90;;;;;;5065958;28;20051;-72
2022/11/28 05:43:18;;;;;;;92.72;58.13;;;7.70;99.90;;;;;;5060205;28;20475;-73
2022/11/28 05:45:44;;;;;;;101.88;58.97;;;7.60;99.90;;;;;;5056236;28;20049;-73
2022/11/28 05:48:10;;;;;;;91.53;59.93;;;7.70;99.90;;;;;;5060159;28;20090;-73
2022/11/28 05:50:39;;;;;;;66.57;44.70;;;7.70;99.90;;;;;;5050777;28;20621;-73
2022/11/28 05:53:04;;;;;;;71.43;49.65;;;7.70;99.90;;;;;;5056781;28;20557;-72
2022/11/28 05:55:30;;;;;;;47.72;33.85;;;7.70;99.90;;;;;;5058837;28;20135;-73
2022/11/28 05:57:55;;;;;;;38.70;30.45;;;7.70;99.90;;;;;;5054105;28;20450;-73
2022/11/28 06:00:21;;;;;;;32.30;24.88;;;7.70;99.90;;;;;;5053205;28;20052;-73
2022/11/28 06:02:48;;;;;;;26.17;23.38;;;7.70;99.90;;;;;;5090890;28;20094;-72
2022/11/28 06:05:13;;;;;;;24.42;21.05;;;7.70;99.90;;;;;;5070380;28;20130;-71
2022/11/28 06:07:39;;;;;;;23.23;20.73;;;7.60;99.90;;;;;;5059433;28;20494;-72
2022/11/28 06:10:06;;;;;;;24.52;21.92;;;7.70;99.90;;;;;;5062080;28;20040;-73
2022/11/28 06:12:31;;;;;;;27.50;22.57;;;7.70;99.90;;;;;;5053389;28;20040;-72
2022/11/28 06:14:57;;;;;;;22.33;19.17;;;7.70;99.90;;;;;;5053915;28;20101;-72
2022/11/28 06:17:23;;;;;;;23.95;21.30;;;7.70;99.90;;;;;;5063770;28;20072;-73
2022/11/28 06:19:48;;;;;;;22.77;19.83;;;7.70;99.90;;;;;;5068326;28;20856;-72
2022/11/28 06:22:14;;;;;;;24.77;22.13;;;7.70;99.90;;;;;;5058134;28;20116;-73
2022/11/28 06:24:40;;;;;;;25.48;22.75;;;7.70;99.90;;;;;;5056344;28;20036;-72
2022/11/28 06:27:05;;;;;;;22.85;20.35;;;7.80;99.90;;;;;;5058939;28;20430;-72
2022/11/28 06:29:31;;;;;;;24.20;21.63;;;7.80;99.90;;;;;;5053307;28;20040;-72
2022/11/28 06:31:57;;;;;;;23.85;21.08;;;7.70;99.90;;;;;;5046416;28;20055;-73
2022/11/28 06:34:22;;;;;;;23.75;21.42;;;7.80;99.90;;;;;;5053421;28;20045;-71
2022/11/28 06:36:48;;;;;;;26.38;22.75;;;7.80;99.90;;;;;;5047190;28;21907;-72
2022/11/28 06:39:15;;;;;;;26.75;22.10;;;7.80;99.90;;;;;;5054653;28;20059;-72
2022/11/28 06:41:42;;;;;;;27.27;23.33;;;7.80;99.90;;;;;;5060389;28;20503;-71
2022/11/28 06:44:12;;;;;;;25.85;22.30;;;7.80;99.90;;;;;;5051691;28;20116;-72
2022/11/28 06:46:37;;;;;;;29.88;25.20;;;7.80;99.90;;;;;;5096045;28;20044;-72
2022/11/28 06:49:03;;;;;;;31.27;24.15;;;7.80;99.90;;;;;;5060203;28;20048;-72
2022/11/28 06:51:29;;;;;;;27.65;24.75;;;7.80;99.90;;;;;;5062114;28;20033;-72
2022/11/28 06:53:55;;;;;;;27.25;22.77;;;7.80;99.90;;;;;;5050913;28;20051;-73
2022/11/28 06:56:21;;;;;;;27.48;23.60;;;7.80;99.90;;;;;;5080249;28;20117;-71
2022/11/28 06:58:53;;;;;;;28.25;23.42;;;7.80;99.90;;;;;;5070469;28;20048;-71
2022/11/28 07:01:20;;;;;;;32.95;25.67;;;7.80;99.90;;;;;;5054782;28;20463;-72
2022/11/28 07:03:47;;;;;;;;;;;7.80;99.90;;;;;;5061928;28;20072;-72
2022/11/28 07:06:16;;;;;;;29.67;23.40;;;7.80;99.90;;;;;;5057795;28;20039;-72
2022/11/28 07:08:42;;;;;;;29.05;25.00;;;7.80;99.90;;;;;;5060212;28;20052;-71
2022/11/28 07:11:10;;;;;;;31.58;25.35;;;7.80;99.90;;;;;;5054590;28;20113;-71
2022/11/28 07:13:36;;;;;;;33.85;25.92;;;7.80;99.90;;;;;;5061478;28;20036;-71
2022/11/28 07:16:02;;;;;;;44.45;27.38;;;7.80;99.90;;;;;;5066114;28;20041;-72
2022/11/28 07:18:28;;;;;;;39.63;27.20;;;7.80;99.90;;;;;;5078716;28;20052;-72
2022/11/28 07:20:54;;;;;;;45.83;25.52;;;7.80;99.90;;;;;;5064556;28;20037;-72
2022/11/28 07:23:19;;;;;;;42.17;27.08;;;7.80;99.90;;;;;;5061717;28;20422;-72
2022/11/28 07:25:46;;;;;;;34.63;25.60;;;7.80;99.90;;;;;;5062227;28;20793;-72
2022/11/28 07:28:12;;;;;;;37.33;27.83;;;7.90;99.90;;;;;;5058092;28;20083;-71
2022/11/28 07:30:37;;;;;;;35.67;27.67;;;7.80;99.90;;;;;;5057297;28;20056;-71
2022/11/28 07:33:03;;;;;;;37.72;29.73;;;7.80;99.90;;;;;;5062749;28;20510;-71
2022/11/28 07:35:29;;;;;;;32.67;27.70;;;7.80;99.90;;;;;;5056291;28;20501;-71
2022/11/28 07:37:57;;;;;;;34.45;26.83;;;7.80;99.90;;;;;;5080242;28;20041;-72
2022/11/28 07:40:23;;;;;;;33.30;25.80;;;7.90;99.90;;;;;;5063153;28;20495;-71
2022/11/28 07:42:50;;;;;;;34.67;26.98;;;7.80;99.90;;;;;;5065390;28;20044;-72
2022/11/28 07:45:16;;;;;;;32.53;27.65;;;7.90;99.90;;;;;;5064256;28;20044;-72
2022/11/28 07:47:41;;;;;;;31.38;27.48;;;7.90;99.90;;;;;;5063120;28;20086;-72
2022/11/28 07:50:08;;;;;;;35.42;30.02;;;7.80;99.90;;;;;;5066199;28;20052;-72
2022/11/28 07:52:33;;;;;;;37.75;30.25;;;7.80;99.90;;;;;;5064990;28;20433;-72
2022/11/28 07:54:59;;;;;;;34.95;26.50;;;7.90;99.90;;;;;;5069689;28;20045;-71
2022/11/28 07:57:25;;;;;;;36.83;26.88;;;7.90;99.90;;;;;;5056313;28;20040;-71
2022/11/28 07:59:50;;;;;;;35.97;28.52;;;7.90;99.90;;;;;;5058377;28;20106;-71
2022/11/28 08:02:16;;;;;;;38.15;30.02;;;7.90;99.90;;;;;;5058634;28;20048;-71
2022/11/28 08:04:42;;;;;;;35.47;26.95;;;7.90;99.90;;;;;;5058841;28;20052;-71
2022/11/28 08:07:12;;;;;;;37.55;30.30;;;7.90;99.90;;;;;;5061214;28;20476;-70
2022/11/28 08:09:38;;;;;;;36.75;30.98;;;7.90;99.90;;;;;;5058929;28;20044;-71
2022/11/28 08:12:04;;;;;;;36.75;31.92;;;7.90;99.90;;;;;;5060662;28;20050;-71
2022/11/28 08:14:29;;;;;;;39.17;33.65;;;7.90;99.90;;;;;;5067194;28;20036;-72
2022/11/28 08:16:55;;;;;;;36.25;29.33;;;7.90;99.90;;;;;;5060953;28;20614;-71
2022/11/28 08:19:21;;;;;;;36.53;30.80;;;7.90;99.90;;;;;;5066565;28;20063;-72
2022/11/28 08:21:46;;;;;;;36.22;30.23;;;7.90;99.90;;;;;;5055356;28;20037;-76
2022/11/28 08:24:12;;;;;;;34.88;27.52;;;8.00;99.90;;;;;;5062399;28;20114;-75
2022/11/28 08:26:38;;;;;;;34.05;29.20;;;7.90;99.90;;;;;;5068454;28;20032;-74
2022/11/28 08:29:04;;;;;;;33.22;29.23;;;7.90;99.90;;;;;;5059221;28;20051;-75
2022/11/28 08:31:35;;;;;;;35.22;30.90;;;7.90;99.90;;;;;;5063372;28;20470;-77
2022/11/28 08:34:06;;;;;;;35.00;27.58;;;8.00;99.90;;;;;;5092950;28;20048;-78
2022/11/28 08:36:32;;;;;;;32.67;28.83;;;7.90;99.90;;;;;;5067064;28;20399;-75
2022/11/28 08:39:01;;;;;;;34.13;29.42;;;7.90;99.90;;;;;;5059781;28;20037;-80
2022/11/28 08:41:26;;;;;;;32.30;26.80;;;8.00;99.90;;;;;;5063233;28;20053;-79
2022/11/28 08:43:52;;;;;;;36.17;29.63;;;8.00;99.90;;;;;;5073351;28;20047;-76
2022/11/28 08:46:20;;;;;;;33.58;27.50;;;7.90;99.90;;;;;;5057168;28;20177;-77
2022/11/28 08:48:46;;;;;;;;;;;8.00;99.90;;;;;;5063722;28;20037;-77
2022/11/28 08:51:14;;;;;;;31.60;26.60;;;7.90;99.90;;;;;;5054326;28;20567;-77
2022/11/28 08:53:41;;;;;;;34.50;29.30;;;8.00;99.90;;;;;;5058121;28;20655;-77
2022/11/28 08:56:07;;;;;;;32.60;28.10;;;8.00;99.90;;;;;;5067584;28;20056;-75
2022/11/28 08:58:32;;;;;;;32.25;27.67;;;8.00;99.90;;;;;;5084660;28;20442;-75
2022/11/28 09:00:58;;;;;;;32.95;26.95;;;8.00;99.90;;;;;;5065000;28;20041;-79
2022/11/28 09:03:24;;;;;;;33.70;28.25;;;8.00;99.90;;;;;;5062803;28;20044;-79
2022/11/28 09:05:49;;;;;;;30.88;27.58;;;8.00;99.90;;;;;;5060612;28;20223;-79
2022/11/28 09:08:17;;;;;;;30.80;27.25;;;8.00;99.90;;;;;;5059132;28;20040;-78
2022/11/28 09:10:44;;;;;;;30.95;27.65;;;8.00;99.90;;;;;;5060776;28;20078;-80
2022/11/28 09:13:11;;;;;;;31.92;25.63;;;8.00;99.90;;;;;;5061566;28;20033;-80
2022/11/28 09:15:44;;;;;;;30.65;25.92;;;8.10;99.90;;;;;;5067606;28;20045;-75
2022/11/28 09:18:12;;;;;;;33.65;26.45;;;8.00;99.90;;;;;;5065226;28;20047;-75
2022/11/28 09:20:38;;;;;;;;;;;8.00;99.90;;;;;;5065774;28;20036;-75
2022/11/28 09:23:04;;;;;;;30.52;25.05;;;8.00;99.90;;;;;;5069522;28;19977;-74
2022/11/28 09:25:30;;;;;;;29.47;24.67;;;8.00;99.90;;;;;;5068129;28;20098;-75
2022/11/28 09:27:56;;;;;;;28.42;25.27;;;8.00;99.90;;;;;;5066021;28;20044;-74
2022/11/28 09:30:22;;;;;;;30.73;25.88;;;8.00;99.90;;;;;;5068937;28;20181;-74
2022/11/28 09:32:48;;;;;;;28.75;24.80;;;8.10;99.90;;;;;;5065534;28;20067;-75
2022/11/28 09:35:15;;;;;;;28.10;25.10;;;8.00;99.90;;;;;;5068670;28;20079;-75
2022/11/28 09:37:41;;;;;;;30.27;25.85;;;8.10;99.90;;;;;;5066960;28;20317;-75
2022/11/28 09:40:17;;;;;;;29.30;25.98;;;8.10;99.90;;;;;;5068128;28;20495;-75
2022/11/28 09:42:44;;;;;;;28.38;25.42;;;8.10;99.90;;;;;;5069032;28;20041;-75
2022/11/28 09:45:12;;;;;;;27.00;24.13;;;8.10;99.90;;;;;;5067723;28;20052;-75
2022/11/28 09:47:41;;;;;;;27.13;24.13;;;8.10;99.90;;;;;;5065891;28;20041;-75
2022/11/28 09:50:33;;;;;;;28.90;25.85;;;8.10;99.90;;;;;;5068555;28;20063;-75
2022/11/28 09:53:22;;;;;;;29.08;23.60;;;8.10;99.90;;;;;;5065010;28;20131;-74
2022/11/28 09:55:57;;;;;;;27.15;23.98;;;8.10;99.90;;;;;;5068110;28;20056;-74
2022/11/28 09:58:47;;;;;;;26.63;22.30;;;8.10;99.90;;;;;;5066720;28;20479;-74
2022/11/28 10:01:19;;;;;;;25.75;22.83;;;8.10;99.90;;;;;;5065560;28;20562;-74
2022/11/28 10:03:58;;;;;;;29.73;25.05;;;8.10;99.90;;;;;;5064881;28;20049;-74
2022/11/28 10:06:33;;;;;;;26.88;23.92;;;8.10;99.90;;;;;;5048751;28;20041;-75
2022/11/28 10:09:27;;;;;;;29.80;26.60;;;8.10;99.90;;;;;;5077748;28;20041;-75
2022/11/28 10:12:00;;;;;;;29.13;24.15;;;8.20;99.90;;;;;;5083864;28;20083;-74
2022/11/28 10:14:55;;;;;;;30.45;26.50;;;8.20;99.90;;;;;;5064459;28;20489;-74
2022/11/28 10:17:54;;;;;;;28.65;24.50;;;8.20;99.90;;;;;;5067680;28;20111;-75
2022/11/28 10:20:24;;;;;;;25.25;22.38;;;8.20;99.90;;;;;;5066987;28;20130;-75
2022/11/28 10:23:20;;;;;;;28.17;25.27;;;8.20;99.90;;;;;;5066348;28;20122;-74
2022/11/28 10:25:57;;;;;;;24.70;21.60;;;8.20;99.90;;;;;;5065277;28;20086;-75
2022/11/28 10:28:28;;;;;;;26.95;24.35;;;8.20;99.90;;;;;;5059884;28;20052;-81
2022/11/28 10:31:03;;;;;;;27.15;24.38;;;8.20;99.90;;;;;;5057634;28;20040;-81
2022/11/28 10:33:51;;;;;;;25.70;22.95;;;8.20;99.90;;;;;;5062683;28;20044;-75
2022/11/28 10:37:01;;;;;;;24.25;21.85;;;8.20;99.90;;;;;;5057385;28;20060;-79
2022/11/28 10:39:27;;;;;;;25.30;22.52;;;8.20;99.90;;;;;;5051493;28;20080;-78
2022/11/28 10:42:17;;;;;;;24.70;22.30;;;8.20;99.90;;;;;;5060367;28;20052;-80
2022/11/28 10:44:54;;;;;;;23.58;21.15;;;8.20;99.90;;;;;;5065253;28;20040;-79
2022/11/28 10:47:38;;;;;;;25.02;22.33;;;8.20;99.90;;;;;;5092019;28;20403;-80
2022/11/28 10:50:15;;;;;;;23.20;20.90;;;8.20;99.90;;;;;;5056312;28;20124;-80
2022/11/28 10:52:52;;;;;;;25.77;23.17;;;8.20;99.90;;;;;;5059066;28;20072;-79
2022/11/28 10:55:33;;;;;;;27.13;24.27;;;8.30;99.90;;;;;;5058622;28;20052;-76
2022/11/28 10:58:22;;;;;;;26.30;23.50;;;8.30;99.90;;;;;;5058528;28;20389;-73
2022/11/28 11:00:51;;;;;;;28.08;25.13;;;8.30;99.90;;;;;;5065249;28;20045;-86
2022/11/28 11:03:18;;;;;;;26.05;23.55;;;8.20;99.90;;;;;;5052850;28;20053;-74
2022/11/28 11:05:44;;;;;;;26.33;23.50;;;8.30;99.90;;;;;;5056839;28;20067;-75
2022/11/28 11:08:27;;;;;;;25.80;23.23;;;8.30;99.90;;;;;;5097495;28;20531;-75
2022/11/28 11:10:59;;;;;;;24.25;21.80;;;8.30;99.90;;;;;;5055428;28;20044;-79
2022/11/28 11:13:27;;;;;;;27.17;24.35;;;8.30;99.90;;;;;;5073114;28;20089;-74
2022/11/28 11:16:08;;;;;;;25.45;22.95;;;8.30;99.90;;;;;;5062854;28;20106;-79
2022/11/28 11:18:36;;;;;;;23.98;21.50;;;8.30;99.90;;;;;;5063940;28;20083;-78
2022/11/28 11:21:24;;;;;;;25.27;22.83;;;8.30;99.90;;;;;;5065418;28;20055;-75
2022/11/28 11:24:17;;;;;;;25.48;22.92;;;8.30;99.90;;;;;;5060209;28;20037;-73
2022/11/28 11:26:45;;;;;;;26.88;24.08;;;8.30;99.90;;;;;;5062953;28;20041;-72
2022/11/28 11:29:36;;;;;;;24.95;22.27;;;8.30;99.90;;;;;;5081863;28;20134;-72
2022/11/28 11:32:05;;;;;;;26.92;24.02;;;8.40;99.90;;;;;;5097721;28;20049;-71
2022/11/28 11:34:44;;;;;;;26.60;23.75;;;8.30;99.90;;;;;;5061648;28;20098;-78
2022/11/28 11:37:29;;;;;;;28.63;25.55;;;8.40;99.90;;;;;;5059167;28;20123;-74
2022/11/28 11:39:55;;;;;;;28.75;25.23;;;8.40;99.90;;;;;;5060470;28;20445;-74
2022/11/28 11:42:23;;;;;;;29.13;26.02;;;8.40;99.90;;;;;;5062254;28;20051;-76
2022/11/28 11:44:49;;;;;;;25.73;23.10;;;8.40;99.90;;;;;;5059917;28;20044;-74
2022/11/28 11:47:15;;;;;;;27.45;24.58;;;8.40;99.90;;;;;;5064945;28;20047;-74
2022/11/28 11:49:47;;;;;;;23.67;21.02;;;8.40;99.90;;;;;;5096373;28;20040;-74
2022/11/28 11:52:23;;;;;;;26.58;23.88;;;8.40;99.90;;;;;;5063810;28;20055;-74
2022/11/28 11:54:58;;;;;;;28.88;25.25;;;8.40;99.90;;;;;;5059736;28;20055;-74
2022/11/28 11:57:37;;;;;;;29.38;26.48;;;8.40;99.90;;;;;;5067033;28;20056;-73
2022/11/28 12:00:13;;;;;;;29.00;25.90;;;8.40;99.90;;;;;;5068358;28;20116;-75
2022/11/28 12:02:52;;;;;;;29.40;26.33;;;8.40;99.90;;;;;;5062173;28;20044;-74
2022/11/28 12:05:30;;;;;;;29.25;26.27;;;8.40;99.90;;;;;;5064461;28;20074;-73
2022/11/28 12:07:58;;;;;;;30.55;26.25;;;8.40;99.90;;;;;;5100602;28;20537;-74
2022/11/28 12:10:28;;;;;;;31.55;28.35;;;8.40;99.90;;;;;;5064228;28;20174;-73
2022/11/28 12:12:54;;;;;;;30.40;27.40;;;8.40;99.90;;;;;;5064937;28;20059;-72
2022/11/28 12:15:43;;;;;;;30.88;27.88;;;8.40;99.90;;;;;;5059810;28;20056;-78
2022/11/28 12:18:31;;;;;;;30.80;27.70;;;8.50;99.90;;;;;;5063177;28;20102;-82
2022/11/28 12:21:29;;;;;;;29.13;26.33;;;8.50;99.90;;;;;;5083476;28;20123;-79
2022/11/28 12:24:19;;;;;;;30.35;27.40;;;8.50;99.90;;;;;;5055464;28;20048;-72
2022/11/28 12:27:06;;;;;;;30.42;27.23;;;8.50;99.90;;;;;;5065498;28;20610;-77
2022/11/28 12:29:50;;;;;;;;;;;8.50;99.90;;;;;;5071195;28;20559;-74
2022/11/28 12:32:37;;;;;;;29.63;26.40;;;8.40;99.90;;;;;;5074192;28;19921;-74
2022/11/28 12:35:14;;;;;;;33.85;30.48;;;8.40;99.90;;;;;;5057265;28;20055;-76
2022/11/28 12:38:04;;;;;;;35.70;31.92;;;8.40;99.90;;;;;;5068986;28;20161;-77
2022/11/28 12:40:52;;;;;;;33.35;30.05;;;8.40;99.90;;;;;;5064941;28;20051;-76
2022/11/28 12:43:59;;;;;;;33.67;29.75;;;8.50;99.90;;;;;;5060877;28;20788;-76
2022/11/28 12:46:37;;;;;;;33.47;29.98;;;8.50;99.90;;;;;;5055978;28;20045;-70
2022/11/28 12:49:29;;;;;;;36.08;29.33;;;8.50;99.90;;;;;;5093754;27;20045;-73
2022/11/28 12:52:36;;;;;;;34.80;31.23;;;8.50;99.90;;;;;;5065125;28;20040;-73
2022/11/28 12:55:07;;;;;;;;;;;8.50;99.90;;;;;;5068663;28;20098;-73
2022/11/28 12:58:03;;;;;;;36.65;32.72;;;8.40;99.90;;;;;;5064011;28;19920;-74
2022/11/28 13:00:29;;;;;;;36.05;32.35;;;8.40;99.90;;;;;;5065617;28;20040;-74
2022/11/28 13:03:16;;;;;;;35.15;31.38;;;8.40;99.90;;;;;;5064690;28;20044;-72
2022/11/28 13:05:58;;;;;;;36.72;33.13;;;8.40;99.90;;;;;;5061360;28;20032;-73